AGP weather

Málaga Airport
Málaga, Andalucía, Spain

Public forecast

Using degrees Celsius for public forecast. Weather courtesy of forecast.io.

METAR (pilot weather report)

Retrieved 2019/03/22 16:30 UTC (16 minutes ago):

LEMG 221630Z 12011KT 080V150 9999 FEW025 16/08 Q1024 NOSIG

TAF (pilot weather forecast)

Retrieved 2019/03/22 12:27 UTC (4 hours ago):

TAF LEMG 221100Z 2212/2312 11011KT 9999 FEW030 TX19/2214Z TN11/2306Z BECMG 2222/2224 29006KT BECMG 2308/2310 11014KT